Time;durP1;ratioP1;P1;durP2;ratioP2;P2;SDS_P1;SDS_P2;PMS_P1;PMS_P2;Temp;Humidity;BMP_temperature;BMP_pressure;BME280_temperature;BME280_humidity;BME280_pressure;Samples;Min_cycle;Max_cycle;Signal;HPM_P1;HPM_P2
2022/03/06 00:00:07;;;;;;;36.70;18.33;;;;;;;;;;4906478;28;20470;-44
2022/03/06 00:02:33;;;;;;;34.67;17.73;;;;;;;;;;4907287;28;20800;-45
2022/03/06 00:04:59;;;;;;;33.33;18.10;;;;;;;;;;4909535;28;20428;-44
2022/03/06 00:07:25;;;;;;;36.07;19.53;;;;;;;;;;4913598;28;20915;-44
2022/03/06 00:09:51;;;;;;;35.23;18.43;;;;;;;;;;4915948;29;20426;-44
2022/03/06 00:12:18;;;;;;;42.53;20.10;;;;;;;;;;4913868;28;20551;-44
2022/03/06 00:14:44;;;;;;;37.53;19.80;;;;;;;;;;4912652;28;20865;-44
2022/03/06 00:17:10;;;;;;;36.30;19.13;;;;;;;;;;4906941;28;21221;-44
2022/03/06 00:19:36;;;;;;;39.53;18.40;;;;;;;;;;4911093;28;20910;-44
2022/03/06 00:22:02;;;;;;;37.93;19.97;;;;;;;;;;4913677;28;21346;-44
2022/03/06 00:24:28;;;;;;;35.53;18.53;;;;;;;;;;4910300;28;20980;-45
2022/03/06 00:26:55;;;;;;;38.23;19.17;;;;;;;;;;4908232;28;20431;-44
2022/03/06 00:29:21;;;;;;;37.77;18.90;;;;;;;;;;4910541;28;20474;-44
2022/03/06 00:31:47;;;;;;;35.07;18.57;;;;;;;;;;4912938;28;20427;-44
2022/03/06 00:34:13;;;;;;;38.73;19.47;;;;;;;;;;4904668;28;20978;-44
2022/03/06 00:36:39;;;;;;;38.30;18.37;;;;;;;;;;4909638;28;20921;-44
2022/03/06 00:39:05;;;;;;;30.07;17.57;;;;;;;;;;4914390;28;21051;-44
2022/03/06 00:41:31;;;;;;;37.37;19.03;;;;;;;;;;4910395;28;20967;-45
2022/03/06 00:43:57;;;;;;;38.10;18.27;;;;;;;;;;4909752;28;20926;-45
2022/03/06 00:46:23;;;;;;;35.53;18.17;;;;;;;;;;4907068;28;20431;-45
2022/03/06 00:48:50;;;;;;;38.60;18.37;;;;;;;;;;4914019;28;20543;-45
2022/03/06 00:51:16;;;;;;;35.53;17.67;;;;;;;;;;4909960;28;20471;-45
2022/03/06 00:53:43;;;;;;;36.23;17.57;;;;;;;;;;4887584;29;20870;-44
2022/03/06 00:56:09;;;;;;;33.10;17.97;;;;;;;;;;4910617;28;20813;-44
2022/03/06 00:58:35;;;;;;;35.87;18.37;;;;;;;;;;4910944;28;20435;-45
2022/03/06 01:01:01;;;;;;;38.77;18.53;;;;;;;;;;4912309;28;21086;-43
2022/03/06 01:03:28;;;;;;;31.97;17.63;;;;;;;;;;4908772;28;20435;-43
2022/03/06 01:05:54;;;;;;;33.93;18.40;;;;;;;;;;4909828;28;20923;-43
2022/03/06 01:08:21;;;;;;;33.00;16.83;;;;;;;;;;4907003;28;21125;-43
2022/03/06 01:10:48;;;;;;;34.67;18.77;;;;;;;;;;4911423;28;20438;-44
2022/03/06 01:13:14;;;;;;;34.90;18.97;;;;;;;;;;4909803;28;20590;-45
2022/03/06 01:15:40;;;;;;;35.30;17.63;;;;;;;;;;4906307;28;20475;-43
2022/03/06 01:18:07;;;;;;;30.73;17.60;;;;;;;;;;4909917;28;20425;-44
2022/03/06 01:20:36;;;;;;;33.60;17.10;;;;;;;;;;4906112;28;20438;-44
2022/03/06 01:23:03;;;;;;;31.63;17.63;;;;;;;;;;4913399;28;20501;-44
2022/03/06 01:25:29;;;;;;;30.60;17.80;;;;;;;;;;4913556;28;20445;-44
2022/03/06 01:27:55;;;;;;;34.37;17.47;;;;;;;;;;4912379;28;20749;-44
2022/03/06 01:30:22;;;;;;;34.90;17.63;;;;;;;;;;4908065;28;20510;-44
2022/03/06 01:32:49;;;;;;;31.67;16.67;;;;;;;;;;4910235;28;20461;-44
2022/03/06 01:35:15;;;;;;;34.60;17.43;;;;;;;;;;4913199;28;20435;-44
2022/03/06 01:37:42;;;;;;;33.13;17.00;;;;;;;;;;4909347;28;20991;-44
2022/03/06 01:40:09;;;;;;;34.87;17.13;;;;;;;;;;4909721;28;21052;-44
2022/03/06 01:42:38;;;;;;;37.83;18.57;;;;;;;;;;4910129;28;21348;-44
2022/03/06 01:45:06;;;;;;;38.30;18.77;;;;;;;;;;4910896;28;20557;-44
2022/03/06 01:47:32;;;;;;;33.97;16.57;;;;;;;;;;4913284;28;20528;-44
2022/03/06 01:49:58;;;;;;;38.73;18.37;;;;;;;;;;4910984;28;20789;-44
2022/03/06 01:52:24;;;;;;;35.00;17.23;;;;;;;;;;4910155;28;20752;-44
2022/03/06 01:54:50;;;;;;;33.87;17.57;;;;;;;;;;4911969;28;20477;-44
2022/03/06 01:57:16;;;;;;;36.43;18.37;;;;;;;;;;4912858;28;20443;-44
2022/03/06 01:59:42;;;;;;;35.37;18.27;;;;;;;;;;4909096;28;20529;-45
2022/03/06 02:02:08;;;;;;;34.50;17.80;;;;;;;;;;4904700;28;20538;-44
2022/03/06 02:04:34;;;;;;;32.53;18.17;;;;;;;;;;4906429;28;21625;-46
2022/03/06 02:07:00;;;;;;;42.60;18.27;;;;;;;;;;4908553;28;20986;-46
2022/03/06 02:09:28;;;;;;;35.00;18.07;;;;;;;;;;4913487;28;20489;-43
2022/03/06 02:14:39;;;;;;;32.47;17.53;;;;;;;;;;4907606;28;20422;-43
2022/03/06 02:17:05;;;;;;;34.57;18.30;;;;;;;;;;4907703;28;20431;-44
2022/03/06 02:19:31;;;;;;;38.87;17.60;;;;;;;;;;4910131;28;20427;-44
2022/03/06 02:21:57;;;;;;;34.77;18.03;;;;;;;;;;4910730;28;20431;-44
2022/03/06 02:24:23;;;;;;;34.13;17.03;;;;;;;;;;4906335;28;20434;-43
2022/03/06 02:26:49;;;;;;;37.83;18.30;;;;;;;;;;4908059;28;20853;-44
2022/03/06 02:29:15;;;;;;;39.87;19.17;;;;;;;;;;4908925;28;21022;-44
2022/03/06 02:31:41;;;;;;;37.00;18.80;;;;;;;;;;4911054;28;20886;-44
2022/03/06 02:34:08;;;;;;;34.43;17.57;;;;;;;;;;4912897;28;20798;-44
2022/03/06 02:36:34;;;;;;;34.97;17.43;;;;;;;;;;4909061;28;20427;-44
2022/03/06 02:39:00;;;;;;;42.10;19.00;;;;;;;;;;4905737;28;20998;-44
2022/03/06 02:41:26;;;;;;;36.60;18.83;;;;;;;;;;4908504;28;21201;-43
2022/03/06 02:43:52;;;;;;;36.93;17.20;;;;;;;;;;4914521;28;20623;-44
2022/03/06 02:46:18;;;;;;;34.93;17.20;;;;;;;;;;4914064;28;20426;-44
2022/03/06 02:48:44;;;;;;;40.10;18.83;;;;;;;;;;4907386;28;20529;-44
2022/03/06 02:51:10;;;;;;;33.67;17.53;;;;;;;;;;4910912;28;21055;-44
2022/03/06 02:53:36;;;;;;;42.40;18.33;;;;;;;;;;4913839;28;20836;-43
2022/03/06 02:56:03;;;;;;;37.60;18.03;;;;;;;;;;4914558;28;20866;-44
2022/03/06 02:58:29;;;;;;;38.10;18.10;;;;;;;;;;4916942;28;20923;-44
2022/03/06 03:00:55;;;;;;;37.63;17.97;;;;;;;;;;4916403;28;20888;-44
2022/03/06 03:03:21;;;;;;;36.60;18.00;;;;;;;;;;4913391;28;20422;-44
2022/03/06 03:05:48;;;;;;;38.97;19.03;;;;;;;;;;4909263;28;20537;-45
2022/03/06 03:08:14;;;;;;;36.00;18.17;;;;;;;;;;4911667;28;20469;-46
2022/03/06 03:10:40;;;;;;;43.57;19.53;;;;;;;;;;4915791;28;20425;-45
2022/03/06 03:13:06;;;;;;;40.57;19.53;;;;;;;;;;4912089;28;20995;-46
2022/03/06 03:15:32;;;;;;;44.43;19.67;;;;;;;;;;4907452;28;20906;-46
2022/03/06 03:17:58;;;;;;;38.37;18.93;;;;;;;;;;4909956;28;20439;-45
2022/03/06 03:20:24;;;;;;;39.47;18.83;;;;;;;;;;4911789;28;20438;-45
2022/03/06 03:22:50;;;;;;;37.03;19.43;;;;;;;;;;4915160;28;21305;-44
2022/03/06 03:25:16;;;;;;;40.00;19.23;;;;;;;;;;4912483;28;20442;-45
2022/03/06 03:27:43;;;;;;;42.57;19.57;;;;;;;;;;4907246;28;20569;-45
2022/03/06 03:30:10;;;;;;;38.70;19.53;;;;;;;;;;4907208;28;20976;-45
2022/03/06 03:32:36;;;;;;;37.33;19.50;;;;;;;;;;4915265;28;21011;-44
2022/03/06 03:35:02;;;;;;;34.83;18.40;;;;;;;;;;4912484;28;20423;-45
2022/03/06 03:37:29;;;;;;;39.33;19.20;;;;;;;;;;4910722;28;20527;-46
2022/03/06 03:39:55;;;;;;;38.30;19.13;;;;;;;;;;4912184;28;20658;-46
2022/03/06 03:42:21;;;;;;;41.03;20.33;;;;;;;;;;4913838;28;20557;-45
2022/03/06 03:44:47;;;;;;;34.67;18.97;;;;;;;;;;4913507;28;20434;-45
2022/03/06 03:47:13;;;;;;;38.50;19.43;;;;;;;;;;4907940;28;20952;-45
2022/03/06 03:49:39;;;;;;;39.20;19.53;;;;;;;;;;4910440;28;22222;-45
2022/03/06 03:52:05;;;;;;;34.93;19.37;;;;;;;;;;4915495;28;20430;-45
2022/03/06 03:54:31;;;;;;;38.63;19.63;;;;;;;;;;4897626;28;20438;-45
2022/03/06 03:56:57;;;;;;;42.83;20.03;;;;;;;;;;4908430;28;20485;-45
2022/03/06 03:59:23;;;;;;;41.07;20.40;;;;;;;;;;4909787;28;20668;-45
2022/03/06 04:01:51;;;;;;;37.20;18.90;;;;;;;;;;4913306;28;21033;-45
2022/03/06 04:04:17;;;;;;;39.20;20.73;;;;;;;;;;4909714;28;20959;-45
2022/03/06 04:06:43;;;;;;;37.10;19.93;;;;;;;;;;4912999;28;21443;-45
2022/03/06 04:09:09;;;;;;;41.43;20.23;;;;;;;;;;4912165;28;20466;-45
2022/03/06 04:11:35;;;;;;;43.17;19.77;;;;;;;;;;4908625;28;20739;-46
2022/03/06 04:14:02;;;;;;;38.87;19.73;;;;;;;;;;4912484;28;20958;-45
2022/03/06 04:16:28;;;;;;;36.03;19.23;;;;;;;;;;4912187;28;21141;-45
2022/03/06 04:18:54;;;;;;;41.07;19.40;;;;;;;;;;4913916;28;21020;-45
2022/03/06 04:21:20;;;;;;;37.10;18.37;;;;;;;;;;4912024;28;20546;-45
2022/03/06 04:23:46;;;;;;;40.43;20.40;;;;;;;;;;4908590;28;20855;-45
2022/03/06 04:26:12;;;;;;;38.43;20.10;;;;;;;;;;4910076;28;20758;-45
2022/03/06 04:28:38;;;;;;;40.20;21.33;;;;;;;;;;4907825;28;22739;-45
2022/03/06 04:31:04;;;;;;;48.00;20.63;;;;;;;;;;4911163;28;21056;-46
2022/03/06 04:33:30;;;;;;;36.67;19.23;;;;;;;;;;4912684;28;20435;-45
2022/03/06 04:35:57;;;;;;;40.23;19.67;;;;;;;;;;4912377;28;20423;-45
2022/03/06 04:38:23;;;;;;;39.73;20.40;;;;;;;;;;4906909;28;20438;-46
2022/03/06 04:40:49;;;;;;;36.47;18.53;;;;;;;;;;4913252;28;20490;-45
2022/03/06 04:43:15;;;;;;;34.27;18.63;;;;;;;;;;4913319;28;20462;-45
2022/03/06 04:45:41;;;;;;;42.40;19.40;;;;;;;;;;4910393;28;20836;-45
2022/03/06 04:48:07;;;;;;;37.47;19.07;;;;;;;;;;4909346;28;20462;-45
2022/03/06 04:50:33;;;;;;;39.40;19.50;;;;;;;;;;4909287;28;21285;-45
2022/03/06 04:52:59;;;;;;;36.07;18.20;;;;;;;;;;4909468;28;20513;-45
2022/03/06 04:55:25;;;;;;;38.57;18.43;;;;;;;;;;4912756;28;20521;-45
2022/03/06 04:57:51;;;;;;;37.50;18.00;;;;;;;;;;4907571;28;20852;-45
2022/03/06 05:00:17;;;;;;;35.40;18.63;;;;;;;;;;4887706;28;20439;-45
2022/03/06 05:02:43;;;;;;;37.20;20.63;;;;;;;;;;4909008;28;20810;-46
2022/03/06 05:05:10;;;;;;;43.57;19.57;;;;;;;;;;4913563;28;20741;-45
2022/03/06 05:07:36;;;;;;;38.40;19.27;;;;;;;;;;4909116;28;20458;-45
2022/03/06 05:10:07;;;;;;;42.03;21.00;;;;;;;;;;4910100;28;20434;-46
2022/03/06 05:12:33;;;;;;;38.43;18.70;;;;;;;;;;4908998;28;20431;-45
2022/03/06 05:14:59;;;;;;;39.87;19.33;;;;;;;;;;4906551;28;20505;-45
2022/03/06 05:17:25;;;;;;;35.00;19.30;;;;;;;;;;4907685;28;20746;-44
2022/03/06 05:19:51;;;;;;;36.70;17.93;;;;;;;;;;4889012;28;20435;-44
2022/03/06 05:22:17;;;;;;;38.67;18.43;;;;;;;;;;4906565;28;20469;-44
2022/03/06 05:24:43;;;;;;;36.63;17.97;;;;;;;;;;4911312;28;21269;-44
2022/03/06 05:27:09;;;;;;;35.33;19.27;;;;;;;;;;4911235;28;20943;-44
2022/03/06 05:29:35;;;;;;;35.97;18.30;;;;;;;;;;4909753;28;20454;-44
2022/03/06 05:32:01;;;;;;;36.97;17.93;;;;;;;;;;4909611;28;20459;-44
2022/03/06 05:34:27;;;;;;;39.87;18.57;;;;;;;;;;4912037;28;20431;-45
2022/03/06 05:36:54;;;;;;;39.70;19.73;;;;;;;;;;4911921;28;20444;-44
2022/03/06 05:39:20;;;;;;;40.70;19.27;;;;;;;;;;4906263;28;21026;-44
2022/03/06 05:41:47;;;;;;;35.30;18.73;;;;;;;;;;4908957;28;20445;-44
2022/03/06 05:44:13;;;;;;;42.13;20.27;;;;;;;;;;4908569;28;20751;-44
2022/03/06 05:46:39;;;;;;;40.47;20.10;;;;;;;;;;4910491;28;20792;-44
2022/03/06 05:49:12;;;;;;;41.60;20.87;;;;;;;;;;4908915;28;20518;-44
2022/03/06 05:51:39;;;;;;;41.97;19.87;;;;;;;;;;4907969;28;20415;-45
2022/03/06 05:54:06;;;;;;;45.90;20.57;;;;;;;;;;4910167;28;20439;-45
2022/03/06 05:56:34;;;;;;;40.13;20.07;;;;;;;;;;4908974;28;20940;-44
2022/03/06 05:59:00;;;;;;;40.63;19.93;;;;;;;;;;4913064;28;20438;-44
2022/03/06 06:01:29;;;;;;;38.93;18.97;;;;;;;;;;4907123;28;20841;-45
2022/03/06 06:03:55;;;;;;;37.17;19.40;;;;;;;;;;4905972;28;20501;-45
2022/03/06 06:06:21;;;;;;;36.67;19.27;;;;;;;;;;4910919;28;20490;-44
2022/03/06 06:08:47;;;;;;;36.90;18.63;;;;;;;;;;4911838;28;20895;-45
2022/03/06 06:11:13;;;;;;;39.30;19.87;;;;;;;;;;4908368;28;20435;-45
2022/03/06 06:13:40;;;;;;;42.23;20.03;;;;;;;;;;4907640;28;20519;-44
2022/03/06 06:16:06;;;;;;;46.77;20.33;;;;;;;;;;4907707;28;20442;-44
2022/03/06 06:18:32;;;;;;;40.93;20.10;;;;;;;;;;4909821;28;21281;-45
2022/03/06 06:20:58;;;;;;;43.93;21.67;;;;;;;;;;4916509;28;20513;-44
2022/03/06 06:23:24;;;;;;;40.60;19.83;;;;;;;;;;4914442;28;20442;-44
2022/03/06 06:25:51;;;;;;;44.97;20.87;;;;;;;;;;4913804;28;20485;-44
2022/03/06 06:28:17;;;;;;;40.83;21.43;;;;;;;;;;4910477;28;20745;-45
2022/03/06 06:30:43;;;;;;;40.70;21.57;;;;;;;;;;4908066;28;20786;-45
2022/03/06 06:33:09;;;;;;;38.50;21.00;;;;;;;;;;4915064;28;20511;-45
2022/03/06 06:35:35;;;;;;;38.20;19.47;;;;;;;;;;4910749;28;20465;-45
2022/03/06 06:38:02;;;;;;;40.77;19.97;;;;;;;;;;4908515;28;20817;-44
2022/03/06 06:40:28;;;;;;;36.40;19.97;;;;;;;;;;4916676;29;20415;-45
2022/03/06 06:42:54;;;;;;;38.87;21.43;;;;;;;;;;4911859;28;20676;-45
2022/03/06 06:45:20;;;;;;;40.47;20.93;;;;;;;;;;4912974;28;21023;-45
2022/03/06 06:47:46;;;;;;;36.87;20.33;;;;;;;;;;4908462;28;20800;-45
2022/03/06 06:50:12;;;;;;;37.33;20.67;;;;;;;;;;4908179;28;20429;-45
2022/03/06 06:52:38;;;;;;;41.27;22.17;;;;;;;;;;4910648;28;20509;-45
2022/03/06 06:55:05;;;;;;;39.27;20.20;;;;;;;;;;4916245;28;20466;-45
2022/03/06 06:57:32;;;;;;;38.23;20.43;;;;;;;;;;4912908;28;20441;-44
2022/03/06 06:59:59;;;;;;;36.53;19.97;;;;;;;;;;4911729;28;20466;-44
2022/03/06 07:02:25;;;;;;;37.83;20.40;;;;;;;;;;4913223;28;20527;-45
2022/03/06 07:04:51;;;;;;;41.53;21.20;;;;;;;;;;4910771;28;20466;-45
2022/03/06 07:07:18;;;;;;;43.20;21.87;;;;;;;;;;4914522;28;20808;-45
2022/03/06 07:09:44;;;;;;;42.13;22.00;;;;;;;;;;4914299;28;21070;-45
2022/03/06 07:12:11;;;;;;;37.83;20.20;;;;;;;;;;4914462;28;20438;-45
2022/03/06 07:14:37;;;;;;;35.73;20.27;;;;;;;;;;4910449;28;20438;-45
2022/03/06 07:17:03;;;;;;;39.20;21.30;;;;;;;;;;4909782;28;20492;-46
2022/03/06 07:19:29;;;;;;;41.00;21.43;;;;;;;;;;4909511;28;20497;-45
2022/03/06 07:21:55;;;;;;;41.07;20.40;;;;;;;;;;4910738;28;21006;-45
2022/03/06 07:24:22;;;;;;;46.67;21.70;;;;;;;;;;4912548;28;20431;-45
2022/03/06 07:26:48;;;;;;;40.67;21.47;;;;;;;;;;4907391;28;21108;-45
2022/03/06 07:29:14;;;;;;;38.70;21.03;;;;;;;;;;4912717;28;20463;-44
2022/03/06 07:31:42;;;;;;;39.97;21.87;;;;;;;;;;4912631;28;20485;-44
2022/03/06 07:34:08;;;;;;;40.13;21.40;;;;;;;;;;4913031;28;20415;-45
2022/03/06 07:36:34;;;;;;;47.13;22.20;;;;;;;;;;4909705;28;20691;-45
2022/03/06 07:39:01;;;;;;;40.07;22.47;;;;;;;;;;4912933;28;20441;-45
2022/03/06 07:41:27;;;;;;;37.73;20.83;;;;;;;;;;4914289;28;20436;-45
2022/03/06 07:43:53;;;;;;;42.73;21.90;;;;;;;;;;4913822;28;20479;-45
2022/03/06 07:46:19;;;;;;;42.87;23.13;;;;;;;;;;4909650;28;20761;-46
2022/03/06 07:48:45;;;;;;;38.97;21.57;;;;;;;;;;4895063;29;20974;-46
2022/03/06 07:51:11;;;;;;;40.37;21.57;;;;;;;;;;4913796;28;20520;-45
2022/03/06 07:53:37;;;;;;;40.17;21.77;;;;;;;;;;4913400;28;20459;-45
2022/03/06 07:56:03;;;;;;;35.73;20.30;;;;;;;;;;4910975;28;20786;-45
2022/03/06 07:58:29;;;;;;;40.47;21.90;;;;;;;;;;4912140;28;20427;-46
2022/03/06 08:00:55;;;;;;;38.00;21.03;;;;;;;;;;4911711;28;21038;-46
2022/03/06 08:03:21;;;;;;;37.47;21.67;;;;;;;;;;4906820;28;20423;-46
2022/03/06 08:05:47;;;;;;;42.47;21.87;;;;;;;;;;4913498;28;20431;-46
2022/03/06 08:08:14;;;;;;;38.43;21.03;;;;;;;;;;4909235;28;20864;-44
2022/03/06 08:10:40;;;;;;;36.63;19.97;;;;;;;;;;4908143;28;20526;-45
2022/03/06 08:13:06;;;;;;;37.13;21.27;;;;;;;;;;4911144;28;20438;-45
2022/03/06 08:15:32;;;;;;;35.97;20.10;;;;;;;;;;4913477;28;20486;-45
2022/03/06 08:17:58;;;;;;;35.50;20.27;;;;;;;;;;4912282;28;20970;-45
2022/03/06 08:20:24;;;;;;;40.17;22.27;;;;;;;;;;4907924;28;20469;-45
2022/03/06 08:22:50;;;;;;;40.97;20.63;;;;;;;;;;4908132;28;20546;-45
2022/03/06 08:25:19;;;;;;;36.70;19.90;;;;;;;;;;4907383;28;20426;-45
2022/03/06 08:27:45;;;;;;;36.17;19.60;;;;;;;;;;4906684;28;20435;-45
2022/03/06 08:30:11;;;;;;;32.70;18.90;;;;;;;;;;4909841;28;20755;-45
2022/03/06 08:32:38;;;;;;;30.80;18.37;;;;;;;;;;4891157;29;20443;-45
2022/03/06 08:35:04;;;;;;;32.37;18.90;;;;;;;;;;4908880;28;20439;-45
2022/03/06 08:37:30;;;;;;;33.17;17.87;;;;;;;;;;4910181;28;20438;-45
2022/03/06 08:39:56;;;;;;;29.33;16.97;;;;;;;;;;4908836;28;20455;-45
2022/03/06 08:42:22;;;;;;;31.53;17.50;;;;;;;;;;4908471;28;20557;-45
2022/03/06 08:44:48;;;;;;;30.17;18.33;;;;;;;;;;4908207;28;20430;-45
2022/03/06 08:47:14;;;;;;;31.47;17.73;;;;;;;;;;4911252;28;20802;-45
2022/03/06 08:49:40;;;;;;;28.47;17.97;;;;;;;;;;4893594;29;20805;-45
2022/03/06 08:52:07;;;;;;;31.97;17.50;;;;;;;;;;4908333;28;22641;-45
2022/03/06 08:54:33;;;;;;;29.57;17.17;;;;;;;;;;4885158;28;20478;-45
2022/03/06 08:56:59;;;;;;;30.17;17.13;;;;;;;;;;4900698;28;20618;-45
2022/03/06 08:59:54;;;;;;;30.33;17.20;;;;;;;;;;4903467;28;20427;-45
2022/03/06 09:02:20;;;;;;;28.50;16.93;;;;;;;;;;4883115;28;21062;-45
2022/03/06 09:04:46;;;;;;;30.37;17.80;;;;;;;;;;4861581;28;20463;-46
2022/03/06 09:07:12;;;;;;;28.97;17.63;;;;;;;;;;4872755;28;21459;-46
2022/03/06 09:14:45;;;;;;;27.70;16.93;;;;;;;;;;4919891;28;20505;-38
2022/03/06 09:17:11;;;;;;;32.77;17.37;;;;;;;;;;4922197;28;20458;-40
2022/03/06 09:19:38;;;;;;;27.97;16.30;;;;;;;;;;4927743;28;20441;-41
2022/03/06 09:22:05;;;;;;;28.67;16.37;;;;;;;;;;4935629;28;20429;-39
2022/03/06 09:24:32;;;;;;;28.20;16.30;;;;;;;;;;4937199;28;21265;-38
2022/03/06 09:27:06;;;;;;;26.33;16.37;;;;;;;;;;4934633;28;21345;-39
2022/03/06 09:29:32;;;;;;;31.03;16.37;;;;;;;;;;4939052;28;21282;-39
2022/03/06 09:31:59;;;;;;;24.63;14.90;;;;;;;;;;4939646;28;20413;-40
2022/03/06 09:34:26;;;;;;;25.23;14.67;;;;;;;;;;4941702;28;20438;-39
2022/03/06 09:36:53;;;;;;;27.83;14.37;;;;;;;;;;4941315;28;20222;-38
2022/03/06 09:39:19;;;;;;;25.33;16.13;;;;;;;;;;4941589;28;20430;-40
2022/03/06 09:41:47;;;;;;;26.80;16.20;;;;;;;;;;4952443;28;21071;-39
2022/03/06 09:44:14;;;;;;;26.87;14.83;;;;;;;;;;4943832;28;21138;-38
2022/03/06 09:46:41;;;;;;;23.20;14.70;;;;;;;;;;4941368;28;20434;-38
2022/03/06 09:49:08;;;;;;;26.57;15.10;;;;;;;;;;4939260;28;21336;-38
2022/03/06 09:51:38;;;;;;;26.13;14.07;;;;;;;;;;4941013;28;20433;-38
2022/03/06 09:54:05;;;;;;;25.83;14.37;;;;;;;;;;4944359;28;20434;-38
2022/03/06 09:56:32;;;;;;;21.93;14.03;;;;;;;;;;4944245;28;20190;-38
2022/03/06 09:59:02;;;;;;;24.07;13.40;;;;;;;;;;4958183;28;20433;-38
2022/03/06 10:01:29;;;;;;;23.33;14.90;;;;;;;;;;4941322;28;20183;-40
2022/03/06 10:03:55;;;;;;;22.70;14.07;;;;;;;;;;4941151;28;20466;-39
2022/03/06 10:06:23;;;;;;;26.00;13.43;;;;;;;;;;4940034;28;20825;-39
2022/03/06 10:09:03;;;;;;;23.60;12.63;;;;;;;;;;4941758;28;20207;-39
2022/03/06 10:11:31;;;;;;;23.30;13.33;;;;;;;;;;4958860;28;20279;-38
2022/03/06 10:13:58;;;;;;;21.43;13.50;;;;;;;;;;4949128;28;21020;-39
2022/03/06 10:16:24;;;;;;;23.97;13.93;;;;;;;;;;4945069;28;20246;-39
2022/03/06 10:18:52;;;;;;;21.80;13.47;;;;;;;;;;4961608;28;20186;-39
2022/03/06 10:21:19;;;;;;;24.37;13.23;;;;;;;;;;4958306;28;20262;-40
2022/03/06 10:23:47;;;;;;;23.37;12.47;;;;;;;;;;4946207;28;20199;-38
2022/03/06 10:26:18;;;;;;;23.90;12.00;;;;;;;;;;4945373;28;20197;-38
2022/03/06 10:28:46;;;;;;;18.80;11.40;;;;;;;;;;4959787;28;20968;-37
2022/03/06 10:31:23;;;;;;;20.53;12.40;;;;;;;;;;4946156;28;20929;-38
2022/03/06 10:34:02;;;;;;;19.63;12.17;;;;;;;;;;4950037;28;20190;-38
2022/03/06 10:36:30;;;;;;;21.60;12.60;;;;;;;;;;4947552;28;20413;-37
2022/03/06 10:39:00;;;;;;;21.83;12.37;;;;;;;;;;4964577;28;20729;-39
2022/03/06 10:41:35;;;;;;;21.87;12.67;;;;;;;;;;4961983;28;20429;-38
2022/03/06 10:44:01;;;;;;;19.97;11.70;;;;;;;;;;4949849;28;20820;-39
2022/03/06 10:46:28;;;;;;;18.30;10.73;;;;;;;;;;4958677;28;20187;-38
2022/03/06 10:48:58;;;;;;;20.50;11.90;;;;;;;;;;4945482;28;20195;-38
2022/03/06 10:51:26;;;;;;;20.37;12.97;;;;;;;;;;4947301;28;21384;-38
2022/03/06 10:53:53;;;;;;;21.70;12.80;;;;;;;;;;4947767;28;20742;-38
2022/03/06 10:56:20;;;;;;;21.03;12.73;;;;;;;;;;4945702;28;20189;-39
2022/03/06 10:58:47;;;;;;;20.33;13.10;;;;;;;;;;4943526;28;20264;-37
2022/03/06 11:01:14;;;;;;;20.47;12.93;;;;;;;;;;4942981;28;20229;-40
2022/03/06 11:03:41;;;;;;;19.63;11.90;;;;;;;;;;4943760;28;20186;-38
2022/03/06 11:06:09;;;;;;;21.37;12.63;;;;;;;;;;4955934;28;20182;-38
2022/03/06 11:08:37;;;;;;;20.57;12.53;;;;;;;;;;4945211;28;20192;-38
2022/03/06 11:11:08;;;;;;;21.07;12.43;;;;;;;;;;4944050;28;20176;-38
2022/03/06 11:13:35;;;;;;;19.33;11.87;;;;;;;;;;4943483;28;20228;-39
2022/03/06 11:16:01;;;;;;;22.27;11.90;;;;;;;;;;4946234;28;20697;-38
2022/03/06 11:18:29;;;;;;;19.37;12.10;;;;;;;;;;4945454;28;20233;-40
2022/03/06 11:20:57;;;;;;;19.73;11.53;;;;;;;;;;4959589;28;20216;-38
2022/03/06 11:23:24;;;;;;;16.60;10.77;;;;;;;;;;4961649;28;20191;-37
2022/03/06 11:25:54;;;;;;;15.93;11.03;;;;;;;;;;4963482;28;20194;-38
2022/03/06 11:28:23;;;;;;;20.43;11.20;;;;;;;;;;4959901;28;20199;-38
2022/03/06 11:30:50;;;;;;;17.50;11.47;;;;;;;;;;4955060;28;21094;-38
2022/03/06 11:33:19;;;;;;;20.10;11.20;;;;;;;;;;4950023;28;20293;-38
2022/03/06 11:35:45;;;;;;;19.40;11.17;;;;;;;;;;4948504;28;20186;-37
2022/03/06 11:38:13;;;;;;;16.83;10.03;;;;;;;;;;4946741;28;20198;-39
2022/03/06 11:41:03;;;;;;;18.50;10.57;;;;;;;;;;4957799;28;20191;-38
2022/03/06 11:43:55;;;;;;;14.47;9.83;;;;;;;;;;4947494;28;20321;-39
2022/03/06 11:46:23;;;;;;;17.03;10.13;;;;;;;;;;4953147;28;20213;-37
2022/03/06 11:48:50;;;;;;;16.97;9.97;;;;;;;;;;4952506;28;20206;-38
2022/03/06 11:51:19;;;;;;;14.10;9.23;;;;;;;;;;4942921;28;20943;-38
2022/03/06 11:53:52;;;;;;;16.80;9.97;;;;;;;;;;4940040;28;20171;-36
2022/03/06 11:56:31;;;;;;;20.03;9.77;;;;;;;;;;4934678;28;20225;-38
2022/03/06 11:59:01;;;;;;;16.57;9.80;;;;;;;;;;4944609;28;20212;-39
2022/03/06 12:01:34;;;;;;;15.47;8.70;;;;;;;;;;4953775;28;20181;-37
2022/03/06 12:04:01;;;;;;;15.43;9.57;;;;;;;;;;4939651;28;20188;-37
2022/03/06 12:06:28;;;;;;;14.60;9.20;;;;;;;;;;4942724;28;20171;-37
2022/03/06 12:08:56;;;;;;;15.70;9.47;;;;;;;;;;4943420;28;20245;-38
2022/03/06 12:11:22;;;;;;;13.17;8.93;;;;;;;;;;4940704;28;20182;-38
2022/03/06 12:13:50;;;;;;;14.17;8.50;;;;;;;;;;4940855;28;20293;-37
2022/03/06 12:16:16;;;;;;;15.97;8.97;;;;;;;;;;4958130;28;20441;-38
2022/03/06 12:19:01;;;;;;;14.53;8.70;;;;;;;;;;4939014;28;20181;-38
2022/03/06 12:21:39;;;;;;;13.67;8.63;;;;;;;;;;4942482;28;20686;-38
2022/03/06 12:24:13;;;;;;;14.90;8.73;;;;;;;;;;4955462;28;20206;-37
2022/03/06 12:26:43;;;;;;;14.10;8.57;;;;;;;;;;4938218;28;20184;-37
2022/03/06 12:29:10;;;;;;;14.23;9.07;;;;;;;;;;4940480;28;20206;-38
2022/03/06 12:31:38;;;;;;;16.17;9.50;;;;;;;;;;4939502;28;20175;-37
2022/03/06 12:34:23;;;;;;;11.63;8.00;;;;;;;;;;4939989;28;20302;-37
2022/03/06 12:36:56;;;;;;;14.80;9.37;;;;;;;;;;4937092;28;20289;-37
2022/03/06 12:39:23;;;;;;;13.20;8.30;;;;;;;;;;4940440;28;20179;-37
2022/03/06 12:41:50;;;;;;;14.13;8.60;;;;;;;;;;4941674;28;20191;-38
2022/03/06 12:44:23;;;;;;;13.60;8.60;;;;;;;;;;4943960;28;20187;-38
2022/03/06 12:46:50;;;;;;;11.63;8.20;;;;;;;;;;4963053;28;20182;-38
2022/03/06 12:49:17;;;;;;;12.07;8.23;;;;;;;;;;4941776;28;20233;-38
2022/03/06 12:51:48;;;;;;;12.77;8.37;;;;;;;;;;4945441;28;20179;-37
2022/03/06 12:54:43;;;;;;;13.00;8.20;;;;;;;;;;4942309;28;20941;-38
2022/03/06 12:57:10;;;;;;;15.23;8.30;;;;;;;;;;4935606;28;20995;-36
2022/03/06 12:59:41;;;;;;;12.87;8.17;;;;;;;;;;4942279;28;20219;-37
2022/03/06 13:02:08;;;;;;;15.03;7.97;;;;;;;;;;4940712;28;21214;-37
2022/03/06 13:04:38;;;;;;;13.20;8.73;;;;;;;;;;4938297;28;20615;-38
2022/03/06 13:07:06;;;;;;;12.53;8.13;;;;;;;;;;4942965;28;20193;-38
2022/03/06 13:09:36;;;;;;;15.40;8.90;;;;;;;;;;4941398;28;20214;-38
2022/03/06 13:12:04;;;;;;;13.43;8.37;;;;;;;;;;4957917;28;20624;-38
2022/03/06 13:14:34;;;;;;;13.80;8.30;;;;;;;;;;4937236;28;21086;-37
2022/03/06 13:17:03;;;;;;;13.27;8.63;;;;;;;;;;4941388;28;20186;-37
2022/03/06 13:19:47;;;;;;;13.57;8.63;;;;;;;;;;4940501;28;20194;-38
2022/03/06 13:22:16;;;;;;;13.47;9.33;;;;;;;;;;4957682;28;21234;-38
2022/03/06 13:24:47;;;;;;;13.60;8.50;;;;;;;;;;4956385;28;20421;-39
2022/03/06 13:27:25;;;;;;;14.83;9.07;;;;;;;;;;4941173;28;20729;-37
2022/03/06 13:30:07;;;;;;;15.57;8.87;;;;;;;;;;4941158;28;20730;-39
2022/03/06 13:32:34;;;;;;;14.57;9.13;;;;;;;;;;4943949;28;20178;-38
2022/03/06 13:35:01;;;;;;;12.40;8.03;;;;;;;;;;4944661;28;20171;-37
2022/03/06 13:37:46;;;;;;;13.30;8.30;;;;;;;;;;4946644;28;22066;-37
2022/03/06 13:40:14;;;;;;;11.77;8.47;;;;;;;;;;4960255;28;20181;-37
2022/03/06 13:42:44;;;;;;;14.10;8.60;;;;;;;;;;4946650;28;20179;-38
2022/03/06 13:45:12;;;;;;;13.27;9.23;;;;;;;;;;4944099;28;21062;-36
2022/03/06 13:47:42;;;;;;;14.27;8.83;;;;;;;;;;4954945;28;20662;-37
2022/03/06 13:50:09;;;;;;;13.03;8.70;;;;;;;;;;4941773;28;20189;-38
2022/03/06 13:52:37;;;;;;;12.07;8.10;;;;;;;;;;4956060;28;23791;-38
2022/03/06 13:55:08;;;;;;;15.17;8.77;;;;;;;;;;4955884;28;20964;-37
2022/03/06 13:57:35;;;;;;;12.90;7.83;;;;;;;;;;4923600;28;20937;-38
2022/03/06 14:00:20;;;;;;;14.03;9.00;;;;;;;;;;4939602;28;20925;-37
2022/03/06 14:02:47;;;;;;;13.93;8.53;;;;;;;;;;4942677;28;20575;-37
2022/03/06 14:05:20;;;;;;;13.60;9.57;;;;;;;;;;4939593;28;20186;-37
2022/03/06 14:07:47;;;;;;;12.73;8.77;;;;;;;;;;4936334;28;20171;-37
2022/03/06 14:10:15;;;;;;;12.23;8.43;;;;;;;;;;4935029;28;20462;-37
2022/03/06 14:12:46;;;;;;;13.37;8.77;;;;;;;;;;4926617;28;20230;-37
2022/03/06 14:15:39;;;;;;;14.57;9.23;;;;;;;;;;4924265;28;20246;-37
2022/03/06 14:18:06;;;;;;;16.70;9.40;;;;;;;;;;4915228;28;20199;-37
2022/03/06 14:20:56;;;;;;;13.57;9.07;;;;;;;;;;4920961;28;20575;-37
2022/03/06 14:23:22;;;;;;;12.50;8.37;;;;;;;;;;4920784;28;20184;-35
2022/03/06 14:25:48;;;;;;;15.30;9.47;;;;;;;;;;4920466;28;20289;-37
2022/03/06 14:28:15;;;;;;;12.87;8.37;;;;;;;;;;4923063;28;20211;-36